Time;durP1;ratioP1;P1;durP2;ratioP2;P2;SDS_P1;SDS_P2;PMS_P1;PMS_P2;Temp;Humidity;BMP_temperature;BMP_pressure;BME280_temperature;BME280_humidity;BME280_pressure;Samples;Min_cycle;Max_cycle;Signal;HPM_P1;HPM_P2
2023/12/08 00:00:07;;;;;;;6.63;2.92;;;19.80;65.20;;;;;;2087815;28;20013;-49
2023/12/08 00:01:07;;;;;;;4.35;2.95;;;19.70;65.10;;;;;;2087458;28;20021;-49
2023/12/08 00:02:08;;;;;;;3.78;2.78;;;19.80;65.10;;;;;;2087287;28;20025;-49
2023/12/08 00:03:08;;;;;;;5.45;3.08;;;19.70;65.10;;;;;;2087826;28;20021;-49
2023/12/08 00:04:09;;;;;;;4.22;2.72;;;19.70;65.10;;;;;;2087256;28;20028;-49
2023/12/08 00:05:09;;;;;;;4.68;2.90;;;19.70;65.10;;;;;;2087698;28;20096;-49
2023/12/08 00:06:10;;;;;;;4.30;3.03;;;19.70;65.10;;;;;;2087927;28;20013;-49
2023/12/08 00:07:11;;;;;;;3.35;2.35;;;19.70;65.10;;;;;;2086186;28;20312;-49
2023/12/08 00:08:12;;;;;;;3.42;2.63;;;19.60;65.00;;;;;;2088035;28;20021;-49
2023/12/08 00:09:13;;;;;;;4.28;3.03;;;19.70;65.10;;;;;;2084462;28;20009;-49
2023/12/08 00:10:15;;;;;;;4.32;2.92;;;19.70;65.00;;;;;;2087074;28;20024;-48
2023/12/08 00:11:15;;;;;;;3.45;2.75;;;19.60;65.00;;;;;;2087623;28;20099;-49
2023/12/08 00:12:16;;;;;;;3.75;2.58;;;19.60;65.10;;;;;;2086097;28;20025;-49
2023/12/08 00:13:16;;;;;;;4.43;2.67;;;19.70;65.00;;;;;;2086869;28;20025;-50
2023/12/08 00:14:17;;;;;;;3.83;2.85;;;19.60;64.90;;;;;;2088138;28;20472;-49
2023/12/08 00:15:18;;;;;;;3.50;2.55;;;19.60;64.80;;;;;;2086956;28;20052;-49
2023/12/08 00:16:18;;;;;;;3.92;2.83;;;19.60;64.80;;;;;;2087881;28;20021;-49
2023/12/08 00:17:19;;;;;;;3.17;2.70;;;19.60;64.80;;;;;;2087412;28;20271;-48
2023/12/08 00:18:21;;;;;;;4.10;2.63;;;19.50;64.70;;;;;;2087243;28;20017;-48
2023/12/08 00:19:21;;;;;;;5.45;3.00;;;19.70;64.80;;;;;;2087624;28;20028;-50
2023/12/08 00:20:23;;;;;;;4.47;2.85;;;19.60;64.80;;;;;;2087198;28;20054;-50
2023/12/08 00:21:25;;;;;;;3.92;2.70;;;19.60;64.80;;;;;;2086990;28;20021;-48
2023/12/08 00:22:27;;;;;;;4.30;2.45;;;19.60;64.80;;;;;;2087906;28;20446;-49
2023/12/08 00:23:27;;;;;;;4.00;2.60;;;19.60;64.80;;;;;;2087050;28;20397;-48
2023/12/08 00:24:28;;;;;;;3.83;2.60;;;19.60;64.80;;;;;;2087781;28;20027;-49
2023/12/08 00:25:29;;;;;;;3.88;2.95;;;19.60;64.80;;;;;;2087221;28;20548;-49
2023/12/08 00:26:29;;;;;;;3.55;2.67;;;19.60;64.80;;;;;;2087109;28;20024;-52
2023/12/08 00:27:30;;;;;;;4.28;2.78;;;19.60;64.70;;;;;;2087379;28;20163;-49
2023/12/08 00:28:31;;;;;;;5.15;2.63;;;19.50;64.60;;;;;;2087199;28;20033;-49
2023/12/08 00:29:31;;;;;;;3.38;2.40;;;19.60;64.70;;;;;;2086996;28;20127;-49
2023/12/08 00:30:32;;;;;;;3.67;2.70;;;19.50;64.60;;;;;;2087848;28;20483;-48
2023/12/08 00:31:32;;;;;;;4.30;2.75;;;19.50;64.60;;;;;;2086528;28;20249;-49
2023/12/08 00:32:33;;;;;;;3.78;2.90;;;19.60;64.70;;;;;;2087019;28;20037;-49
2023/12/08 00:33:33;;;;;;;3.90;2.60;;;19.50;64.60;;;;;;2085716;28;20247;-49
2023/12/08 00:34:34;;;;;;;4.13;2.70;;;19.60;64.70;;;;;;2085274;28;20032;-48
2023/12/08 00:35:35;;;;;;;4.32;2.78;;;19.50;64.60;;;;;;2085250;28;20711;-49
2023/12/08 00:36:36;;;;;;;3.72;2.72;;;19.50;64.60;;;;;;2086794;28;20017;-49
2023/12/08 00:37:36;;;;;;;4.13;2.60;;;19.50;64.60;;;;;;2087078;28;20033;-48
2023/12/08 00:38:37;;;;;;;4.35;2.70;;;19.50;64.50;;;;;;2087746;28;20447;-50
2023/12/08 00:39:37;;;;;;;3.08;2.47;;;19.60;64.60;;;;;;2086935;28;20028;-50
2023/12/08 00:40:38;;;;;;;4.90;2.72;;;19.50;64.50;;;;;;2087468;28;20020;-50
2023/12/08 00:41:38;;;;;;;3.03;2.38;;;19.40;64.40;;;;;;2087000;28;20054;-48
2023/12/08 00:42:39;;;;;;;3.65;2.75;;;19.60;64.60;;;;;;2087104;28;20029;-48
2023/12/08 00:43:39;;;;;;;3.70;2.75;;;19.50;64.50;;;;;;2086172;28;20380;-50
2023/12/08 00:44:41;;;;;;;3.65;2.58;;;19.50;64.50;;;;;;2087193;28;20098;-48
2023/12/08 00:45:42;;;;;;;4.38;2.83;;;19.50;64.50;;;;;;2087402;28;20491;-49
2023/12/08 00:46:42;;;;;;;4.32;2.80;;;19.50;64.40;;;;;;2086800;28;20221;-49
2023/12/08 00:47:43;;;;;;;4.45;2.90;;;19.50;64.40;;;;;;2086532;28;20078;-49
2023/12/08 00:48:44;;;;;;;3.95;2.72;;;19.50;64.30;;;;;;2086338;28;20514;-50
2023/12/08 00:49:44;;;;;;;3.75;2.80;;;19.50;64.30;;;;;;2087265;28;20112;-50
2023/12/08 00:50:45;;;;;;;3.50;2.78;;;19.50;64.30;;;;;;2086401;28;20079;-49
2023/12/08 00:51:46;;;;;;;3.33;2.47;;;19.50;64.30;;;;;;2087316;28;20033;-50
2023/12/08 00:52:46;;;;;;;4.03;2.90;;;19.50;64.30;;;;;;2086602;28;20025;-48
2023/12/08 00:53:47;;;;;;;4.05;2.90;;;19.60;64.40;;;;;;2087136;28;20537;-49
2023/12/08 00:54:48;;;;;;;4.60;2.55;;;19.50;64.30;;;;;;2083807;28;20403;-50
2023/12/08 00:55:48;;;;;;;4.15;2.90;;;19.50;64.30;;;;;;2087714;28;20084;-50
2023/12/08 00:56:49;;;;;;;3.40;2.58;;;19.40;64.20;;;;;;2085019;28;20032;-48
2023/12/08 00:57:49;;;;;;;3.22;2.38;;;19.40;64.20;;;;;;2087327;28;20519;-49
2023/12/08 00:58:50;;;;;;;3.78;2.60;;;19.40;64.20;;;;;;2087314;28;20498;-49
2023/12/08 00:59:51;;;;;;;4.35;2.83;;;19.40;64.10;;;;;;2087248;28;20404;-51
2023/12/08 01:00:51;;;;;;;4.10;2.85;;;19.50;64.10;;;;;;2086729;28;20114;-49
2023/12/08 01:01:52;;;;;;;3.70;2.65;;;19.40;64.00;;;;;;2087411;28;20059;-50
2023/12/08 01:02:52;;;;;;;3.78;2.70;;;19.40;63.90;;;;;;2085020;28;20039;-48
2023/12/08 01:03:53;;;;;;;4.40;3.00;;;19.40;63.90;;;;;;2086635;28;20028;-49
2023/12/08 01:04:53;;;;;;;4.63;2.97;;;19.50;64.00;;;;;;2087115;28;20479;-49
2023/12/08 01:05:54;;;;;;;4.70;2.70;;;19.40;64.00;;;;;;2087112;28;20028;-49
2023/12/08 01:06:54;;;;;;;3.65;2.40;;;19.40;64.00;;;;;;2087162;28;20479;-50
2023/12/08 01:07:55;;;;;;;3.53;2.55;;;19.40;64.10;;;;;;2087013;28;20163;-49
2023/12/08 01:08:55;;;;;;;4.80;3.05;;;19.50;64.20;;;;;;2084600;28;20216;-50
2023/12/08 01:09:56;;;;;;;3.42;2.55;;;19.40;64.20;;;;;;2087217;28;20056;-48
2023/12/08 01:10:57;;;;;;;3.40;2.55;;;19.40;64.20;;;;;;2087035;28;20081;-48
2023/12/08 01:11:57;;;;;;;3.75;2.60;;;19.40;64.20;;;;;;2086904;28;20487;-50
2023/12/08 01:12:58;;;;;;;3.85;2.55;;;19.40;64.10;;;;;;2086842;28;20435;-50
2023/12/08 01:13:58;;;;;;;4.63;3.17;;;19.50;64.00;;;;;;2087538;28;20459;-48
2023/12/08 01:14:59;;;;;;;4.38;2.85;;;19.40;63.90;;;;;;2087338;28;20345;-50
2023/12/08 01:15:59;;;;;;;3.92;2.55;;;19.40;64.00;;;;;;2084328;28;20488;-49
2023/12/08 01:17:00;;;;;;;3.10;2.25;;;19.40;64.00;;;;;;2085357;28;20392;-49
2023/12/08 01:18:00;;;;;;;3.88;2.70;;;19.40;64.00;;;;;;2085324;28;20384;-51
2023/12/08 01:19:01;;;;;;;4.25;3.03;;;19.40;64.00;;;;;;2087262;28;20021;-49
2023/12/08 01:20:02;;;;;;;4.28;2.60;;;19.30;63.90;;;;;;2086439;28;20096;-49
2023/12/08 01:21:03;;;;;;;4.28;2.53;;;19.40;63.90;;;;;;2087171;28;20532;-49
2023/12/08 01:22:03;;;;;;;3.85;2.65;;;19.30;63.90;;;;;;2085175;28;20020;-48
2023/12/08 01:23:04;;;;;;;4.05;2.70;;;19.40;64.00;;;;;;2087514;28;20530;-50
2023/12/08 01:24:08;;;;;;;3.42;2.42;;;19.40;64.00;;;;;;2086698;28;20484;-49
2023/12/08 01:25:08;;;;;;;3.33;2.42;;;19.30;63.90;;;;;;2085930;28;20397;-49
2023/12/08 01:26:09;;;;;;;3.42;2.60;;;19.20;63.80;;;;;;2086814;28;20053;-48
2023/12/08 01:27:09;;;;;;;5.22;2.60;;;19.30;63.90;;;;;;2087418;28;20033;-49
2023/12/08 01:28:10;;;;;;;3.83;2.80;;;19.30;63.80;;;;;;2086571;28;20028;-50
2023/12/08 01:29:11;;;;;;;4.03;2.67;;;19.30;63.90;;;;;;2086759;28;20032;-48
2023/12/08 01:30:12;;;;;;;3.53;2.60;;;19.30;64.00;;;;;;2086994;28;20036;-50
2023/12/08 01:31:12;;;;;;;3.30;2.30;;;19.30;63.90;;;;;;2087322;28;20017;-48
2023/12/08 01:32:13;;;;;;;4.13;2.70;;;19.40;63.90;;;;;;2086847;28;20025;-48
2023/12/08 01:33:14;;;;;;;3.53;2.50;;;19.30;63.90;;;;;;2086247;28;20013;-49
2023/12/08 01:34:14;;;;;;;4.10;2.75;;;19.30;63.90;;;;;;2086938;28;20033;-49
2023/12/08 01:35:15;;;;;;;3.80;2.72;;;19.30;63.80;;;;;;2087214;28;20025;-48
2023/12/08 01:36:16;;;;;;;3.20;2.50;;;19.30;63.70;;;;;;2086694;28;20017;-48
2023/12/08 01:37:16;;;;;;;2.88;2.30;;;19.30;63.70;;;;;;2087539;28;20037;-48
2023/12/08 01:38:17;;;;;;;4.60;2.60;;;19.30;63.70;;;;;;2086792;28;20027;-49
2023/12/08 01:39:17;;;;;;;3.63;2.90;;;19.30;63.80;;;;;;2086954;28;20017;-48
2023/12/08 01:40:18;;;;;;;5.40;2.63;;;19.30;63.80;;;;;;2086896;28;20435;-48
2023/12/08 01:41:19;;;;;;;5.00;2.90;;;19.30;63.80;;;;;;2086699;28;20053;-49
2023/12/08 01:42:19;;;;;;;4.03;2.65;;;19.30;63.80;;;;;;2087231;28;20021;-48
2023/12/08 01:43:20;;;;;;;3.08;2.45;;;19.30;63.80;;;;;;2086750;28;20029;-48
2023/12/08 01:44:20;;;;;;;2.97;2.63;;;19.30;63.80;;;;;;2084726;28;20306;-49
2023/12/08 01:45:21;;;;;;;4.82;3.00;;;19.30;63.70;;;;;;2086856;28;20032;-48
2023/12/08 01:46:22;;;;;;;4.20;2.85;;;19.30;63.70;;;;;;2087045;28;20041;-49
2023/12/08 01:47:22;;;;;;;4.18;2.38;;;19.20;63.60;;;;;;2087056;28;20025;-48
2023/12/08 01:48:24;;;;;;;3.80;2.50;;;19.20;63.70;;;;;;2087194;28;20048;-49
2023/12/08 01:49:25;;;;;;;3.75;2.78;;;19.20;63.70;;;;;;2084236;28;20021;-49
2023/12/08 01:50:25;;;;;;;3.70;2.67;;;19.30;63.80;;;;;;2086265;28;20128;-50
2023/12/08 01:51:27;;;;;;;3.63;2.60;;;19.30;63.80;;;;;;2086863;28;20025;-50
2023/12/08 01:52:28;;;;;;;3.10;2.35;;;19.30;63.90;;;;;;2085542;28;20031;-48
2023/12/08 01:53:30;;;;;;;4.05;2.50;;;19.20;63.80;;;;;;2086800;28;20013;-50
2023/12/08 01:54:31;;;;;;;3.67;2.65;;;19.20;63.80;;;;;;2088059;28;20053;-48
2023/12/08 01:55:34;;;;;;;3.28;2.28;;;19.20;63.80;;;;;;2088551;28;20032;-48
2023/12/08 01:56:35;;;;;;;3.53;2.65;;;19.20;63.80;;;;;;2087395;28;20028;-50
2023/12/08 01:57:36;;;;;;;4.75;2.55;;;19.20;63.80;;;;;;2086956;28;20055;-49
2023/12/08 01:58:37;;;;;;;4.65;2.90;;;19.30;63.80;;;;;;2088506;28;20021;-49
2023/12/08 01:59:37;;;;;;;3.72;2.58;;;19.20;63.80;;;;;;2088198;28;20036;-48
2023/12/08 02:00:39;;;;;;;3.33;2.53;;;19.20;63.70;;;;;;2088254;28;20032;-49
2023/12/08 02:01:40;;;;;;;4.35;2.92;;;19.20;63.70;;;;;;2088610;28;20021;-48
2023/12/08 02:02:43;;;;;;;4.03;2.78;;;19.20;63.60;;;;;;2088251;28;20108;-48
2023/12/08 02:03:48;;;;;;;3.47;2.67;;;19.20;63.60;;;;;;2088328;28;20055;-51
2023/12/08 02:04:51;;;;;;;3.70;2.30;;;19.20;63.60;;;;;;2089223;28;20017;-50
2023/12/08 02:05:51;;;;;;;4.68;2.83;;;19.20;63.60;;;;;;2088006;28;20021;-48
2023/12/08 02:06:53;;;;;;;4.45;3.10;;;19.30;63.70;;;;;;2088795;28;20494;-51
2023/12/08 02:07:54;;;;;;;4.57;2.58;;;19.20;63.60;;;;;;2088698;28;20017;-48
2023/12/08 02:08:55;;;;;;;4.95;2.47;;;19.20;63.60;;;;;;2088490;28;20025;-49
2023/12/08 02:09:55;;;;;;;4.50;2.78;;;19.20;64.30;;;;;;2088556;28;20040;-49
2023/12/08 02:10:56;;;;;;;3.08;2.40;;;19.20;63.70;;;;;;2088786;28;20486;-48
2023/12/08 02:11:58;;;;;;;4.07;2.47;;;19.20;63.70;;;;;;2087797;28;20021;-49
2023/12/08 02:12:59;;;;;;;3.80;2.50;;;19.30;63.80;;;;;;2088969;28;20024;-49
2023/12/08 02:14:00;;;;;;;3.70;2.45;;;19.20;63.60;;;;;;2088251;28;20107;-48
2023/12/08 02:15:01;;;;;;;3.30;2.35;;;19.20;63.50;;;;;;2088296;28;20032;-48
2023/12/08 02:16:10;;;;;;;3.13;2.50;;;19.20;63.50;;;;;;2088693;28;20108;-50
2023/12/08 02:17:21;;;;;;;3.00;2.15;;;19.20;63.60;;;;;;2087645;28;20159;-48
2023/12/08 02:18:22;;;;;;;4.47;2.72;;;19.20;63.60;;;;;;2088062;28;20545;-49
2023/12/08 02:19:23;;;;;;;3.70;2.58;;;19.10;63.60;;;;;;2085412;28;20151;-48
2023/12/08 02:20:24;;;;;;;3.20;2.65;;;19.10;63.50;;;;;;2087595;28;20017;-50
2023/12/08 02:21:25;;;;;;;3.13;2.17;;;19.20;63.60;;;;;;2086454;28;20025;-52
2023/12/08 02:22:26;;;;;;;3.42;2.58;;;19.10;63.60;;;;;;2091115;28;20452;-51
2023/12/08 02:23:26;;;;;;;4.47;2.90;;;19.20;63.70;;;;;;2088477;28;20037;-52
2023/12/08 02:24:27;;;;;;;5.68;2.50;;;19.10;63.60;;;;;;2091512;28;20013;-50
2023/12/08 02:25:28;;;;;;;4.22;2.92;;;19.20;63.60;;;;;;2089467;28;20024;-49
2023/12/08 02:26:28;;;;;;;4.18;2.90;;;19.10;63.60;;;;;;2087162;28;20025;-49
2023/12/08 02:27:29;;;;;;;2.95;2.42;;;19.20;63.50;;;;;;2086610;28;20535;-48
2023/12/08 02:28:30;;;;;;;3.72;2.60;;;19.20;63.60;;;;;;2088604;28;20446;-49
2023/12/08 02:29:31;;;;;;;3.20;2.60;;;19.10;63.50;;;;;;2088027;28;20033;-50
2023/12/08 02:30:32;;;;;;;3.47;2.60;;;19.10;63.40;;;;;;2088161;28;20108;-49
2023/12/08 02:31:44;;;;;;;3.67;2.33;;;19.20;63.40;;;;;;2088905;28;20028;-51
2023/12/08 02:32:57;;;;;;;3.97;2.60;;;19.10;63.50;;;;;;2089990;28;20021;-50
2023/12/08 02:34:00;;;;;;;3.58;2.60;;;19.10;63.40;;;;;;2086673;28;20408;-49
2023/12/08 02:35:06;;;;;;;4.07;2.90;;;19.20;63.50;;;;;;2088894;28;20283;-48
2023/12/08 02:36:08;;;;;;;3.33;2.40;;;19.10;63.50;;;;;;2086534;28;20336;-48
2023/12/08 02:37:10;;;;;;;3.85;2.67;;;19.10;63.50;;;;;;2085932;28;20022;-49
2023/12/08 02:38:17;;;;;;;3.88;2.88;;;19.10;63.50;;;;;;2088795;28;20025;-48
2023/12/08 02:39:19;;;;;;;3.58;2.40;;;19.20;63.50;;;;;;2084919;28;20459;-48
2023/12/08 02:40:19;;;;;;;3.58;2.50;;;19.10;63.40;;;;;;2088308;28;20031;-48
2023/12/08 02:41:20;;;;;;;3.90;2.88;;;19.20;63.50;;;;;;2088190;28;20017;-48
2023/12/08 02:42:21;;;;;;;3.50;2.60;;;19.10;63.40;;;;;;2088596;28;20376;-48
2023/12/08 02:43:22;;;;;;;4.30;2.88;;;19.10;63.40;;;;;;2087998;28;20114;-48
2023/12/08 02:44:22;;;;;;;3.63;2.50;;;19.00;63.40;;;;;;2088422;28;20027;-49
2023/12/08 02:45:23;;;;;;;3.97;2.53;;;19.10;63.40;;;;;;2084416;28;20636;-49
2023/12/08 02:46:23;;;;;;;3.38;2.38;;;19.10;63.50;;;;;;2088927;28;20187;-48
2023/12/08 02:47:24;;;;;;;4.38;2.75;;;19.10;63.50;;;;;;2087598;28;20060;-48
2023/12/08 02:48:25;;;;;;;3.67;2.50;;;19.10;63.40;;;;;;2088104;28;20365;-48
2023/12/08 02:49:26;;;;;;;2.75;2.10;;;19.10;63.40;;;;;;2088468;28;20075;-48
2023/12/08 02:50:26;;;;;;;3.97;2.42;;;19.10;63.40;;;;;;2087179;28;20078;-49
2023/12/08 02:51:27;;;;;;;2.78;2.30;;;19.20;63.50;;;;;;2088063;28;20029;-48
2023/12/08 02:52:27;;;;;;;5.30;2.85;;;19.10;63.50;;;;;;2087989;28;20029;-48
2023/12/08 02:53:28;;;;;;;4.38;3.00;;;19.10;63.50;;;;;;2087580;28;20032;-48
2023/12/08 02:54:28;;;;;;;3.88;2.58;;;19.00;63.40;;;;;;2088779;28;20021;-49
2023/12/08 02:55:29;;;;;;;3.13;2.45;;;19.10;63.40;;;;;;2087795;28;20032;-48
2023/12/08 02:56:30;;;;;;;4.38;2.70;;;19.10;63.40;;;;;;2088015;28;20092;-49
2023/12/08 02:57:30;;;;;;;3.90;2.63;;;19.10;63.40;;;;;;2088236;28;20024;-48
2023/12/08 02:58:31;;;;;;;3.63;2.25;;;19.00;63.40;;;;;;2088036;28;20106;-49
2023/12/08 02:59:31;;;;;;;3.30;2.65;;;19.00;63.40;;;;;;2088002;28;20053;-48
2023/12/08 03:00:32;;;;;;;2.92;2.38;;;19.10;63.50;;;;;;2088122;28;20025;-48
2023/12/08 03:01:32;;;;;;;3.65;2.55;;;19.00;63.40;;;;;;2087837;28;20502;-48
2023/12/08 03:02:33;;;;;;;4.35;2.60;;;19.10;63.50;;;;;;2088140;28;20491;-48
2023/12/08 03:03:33;;;;;;;3.53;2.50;;;19.00;63.40;;;;;;2088031;28;20063;-48
2023/12/08 03:04:34;;;;;;;4.15;2.85;;;19.10;63.40;;;;;;2087977;28;20060;-48
2023/12/08 03:05:34;;;;;;;4.03;2.83;;;19.00;63.40;;;;;;2087515;28;20025;-48
2023/12/08 03:06:35;;;;;;;2.80;2.10;;;19.00;63.30;;;;;;2088355;28;20029;-51
2023/12/08 03:07:35;;;;;;;4.32;2.83;;;19.00;63.30;;;;;;2087337;28;20021;-48
2023/12/08 03:08:36;;;;;;;4.10;3.00;;;19.00;63.30;;;;;;2087652;28;20029;-50
2023/12/08 03:09:36;;;;;;;2.95;2.47;;;19.10;63.60;;;;;;2088156;28;20029;-48
2023/12/08 03:10:37;;;;;;;3.38;2.50;;;19.00;63.40;;;;;;2087840;28;20025;-48
2023/12/08 03:11:38;;;;;;;4.68;2.67;;;19.00;63.40;;;;;;2088154;28;20040;-48
2023/12/08 03:12:38;;;;;;;3.78;2.70;;;19.10;63.40;;;;;;2087390;28;20021;-49
2023/12/08 03:13:39;;;;;;;3.78;2.78;;;19.00;63.20;;;;;;2087936;28;20044;-48
2023/12/08 03:14:39;;;;;;;2.95;2.40;;;19.00;63.20;;;;;;2087999;28;20048;-49
2023/12/08 03:15:40;;;;;;;3.30;2.50;;;19.00;63.30;;;;;;2088199;28;20021;-48
2023/12/08 03:16:41;;;;;;;3.47;2.40;;;19.00;63.40;;;;;;2087782;28;20025;-48
2023/12/08 03:17:42;;;;;;;3.58;2.78;;;19.00;63.40;;;;;;2088249;28;20025;-49
2023/12/08 03:18:43;;;;;;;3.15;2.30;;;19.00;63.40;;;;;;2087870;28;20177;-48
2023/12/08 03:19:44;;;;;;;3.50;2.42;;;19.00;63.50;;;;;;2087985;28;20032;-50
2023/12/08 03:20:44;;;;;;;3.40;1.95;;;19.00;63.50;;;;;;2087472;28;20040;-48
2023/12/08 03:21:45;;;;;;;3.50;2.63;;;19.00;63.50;;;;;;2088009;28;20025;-49
2023/12/08 03:22:45;;;;;;;3.63;2.22;;;19.00;63.50;;;;;;2088226;28;20075;-48
2023/12/08 03:23:46;;;;;;;3.20;2.47;;;19.00;63.50;;;;;;2087715;28;20108;-48
2023/12/08 03:24:46;;;;;;;3.42;2.40;;;19.00;63.80;;;;;;2087664;28;20101;-48
2023/12/08 03:25:47;;;;;;;3.28;2.60;;;18.90;63.50;;;;;;2088114;28;20021;-48
2023/12/08 03:26:47;;;;;;;3.47;2.85;;;18.90;63.30;;;;;;2087813;28;20053;-48
2023/12/08 03:27:48;;;;;;;4.18;2.80;;;19.00;63.40;;;;;;2086895;28;20031;-48
2023/12/08 03:28:48;;;;;;;2.90;2.40;;;18.90;63.30;;;;;;2087233;28;20100;-49
2023/12/08 03:29:49;;;;;;;3.53;2.47;;;18.90;63.30;;;;;;2088341;28;20021;-49
2023/12/08 03:30:49;;;;;;;3.20;2.80;;;18.90;63.30;;;;;;2087783;28;20195;-48
2023/12/08 03:31:50;;;;;;;4.22;2.75;;;18.90;63.30;;;;;;2087950;28;20051;-48
2023/12/08 03:32:50;;;;;;;3.58;2.40;;;18.90;63.30;;;;;;2087652;28;20333;-48
2023/12/08 03:33:51;;;;;;;4.05;2.78;;;18.90;63.30;;;;;;2087940;28;20025;-48
2023/12/08 03:34:52;;;;;;;4.22;3.05;;;18.90;63.30;;;;;;2087817;28;20013;-49
2023/12/08 03:35:52;;;;;;;4.28;2.47;;;18.80;63.20;;;;;;2086016;28;20045;-48
2023/12/08 03:36:53;;;;;;;3.00;2.30;;;19.00;63.40;;;;;;2087326;28;20021;-48
2023/12/08 03:37:53;;;;;;;5.40;3.22;;;18.90;63.30;;;;;;2088065;28;20024;-48
2023/12/08 03:38:54;;;;;;;4.80;2.72;;;18.80;63.20;;;;;;2087283;28;20024;-48
2023/12/08 03:39:54;;;;;;;3.42;2.60;;;18.90;63.30;;;;;;2088083;28;20021;-50
2023/12/08 03:40:55;;;;;;;3.53;2.53;;;19.00;63.30;;;;;;2087912;28;20013;-49
2023/12/08 03:41:56;;;;;;;3.03;2.38;;;18.90;63.30;;;;;;2087481;28;20021;-48
2023/12/08 03:42:56;;;;;;;3.13;2.55;;;18.90;63.30;;;;;;2085750;28;20018;-49
2023/12/08 03:43:57;;;;;;;3.63;2.45;;;18.90;63.30;;;;;;2087949;28;20036;-49
2023/12/08 03:44:57;;;;;;;3.22;2.45;;;18.90;63.30;;;;;;2087900;28;20071;-48
2023/12/08 03:45:58;;;;;;;3.25;2.53;;;18.90;63.20;;;;;;2085548;28;20487;-48
2023/12/08 03:46:58;;;;;;;2.83;2.20;;;18.80;63.20;;;;;;2088033;28;20103;-48
2023/12/08 03:47:59;;;;;;;3.92;2.40;;;18.90;63.30;;;;;;2087792;28;20439;-49
2023/12/08 03:48:59;;;;;;;3.10;2.45;;;18.90;63.30;;;;;;2087735;28;20143;-49
2023/12/08 03:50:00;;;;;;;3.28;2.60;;;18.90;63.30;;;;;;2087562;28;20070;-48
2023/12/08 03:51:01;;;;;;;3.10;2.30;;;18.90;63.30;;;;;;2087456;28;20029;-48
2023/12/08 03:52:01;;;;;;;2.97;2.33;;;18.90;63.30;;;;;;2087406;28;20040;-48
2023/12/08 03:53:02;;;;;;;4.00;2.80;;;18.90;63.30;;;;;;2088173;28;20055;-49
2023/12/08 03:54:02;;;;;;;3.55;2.65;;;18.90;63.30;;;;;;2087525;28;20017;-49
2023/12/08 03:55:03;;;;;;;3.65;2.67;;;18.80;63.20;;;;;;2087076;28;20025;-48
2023/12/08 03:56:06;;;;;;;3.72;2.53;;;18.80;63.20;;;;;;2087909;28;20024;-49
2023/12/08 03:57:06;;;;;;;3.55;2.38;;;18.80;63.20;;;;;;2086833;28;20421;-48
2023/12/08 03:58:07;;;;;;;3.45;2.65;;;18.80;63.20;;;;;;2086002;28;20090;-49
2023/12/08 03:59:07;;;;;;;4.75;2.60;;;18.90;63.30;;;;;;2087271;28;20087;-48
2023/12/08 04:00:10;;;;;;;3.75;2.40;;;18.90;63.30;;;;;;2087951;28;20112;-49
2023/12/08 04:01:16;;;;;;;3.45;2.50;;;18.80;63.20;;;;;;2087856;28;20114;-48
2023/12/08 04:02:17;;;;;;;4.07;3.03;;;18.90;63.30;;;;;;2087345;28;20044;-48
2023/12/08 04:03:17;;;;;;;4.10;2.80;;;18.90;63.30;;;;;;2088303;28;20475;-49
2023/12/08 04:04:18;;;;;;;4.55;2.60;;;18.70;63.10;;;;;;2086363;28;20021;-49
2023/12/08 04:05:19;;;;;;;6.05;2.90;;;18.80;63.10;;;;;;2087384;28;20021;-48
2023/12/08 04:06:19;;;;;;;4.75;2.67;;;18.80;63.20;;;;;;2086919;28;20032;-49
2023/12/08 04:07:20;;;;;;;3.00;2.42;;;18.80;63.10;;;;;;2087113;28;20024;-48
2023/12/08 04:08:20;;;;;;;4.35;2.50;;;18.80;63.20;;;;;;2087720;28;20204;-49
2023/12/08 04:09:21;;;;;;;3.25;2.45;;;18.80;63.20;;;;;;2087468;28;20060;-48
2023/12/08 04:10:21;;;;;;;4.60;2.80;;;18.80;63.20;;;;;;2086964;28;20029;-48
2023/12/08 04:11:22;;;;;;;3.63;2.60;;;18.80;63.20;;;;;;2088090;28;20033;-48
2023/12/08 04:12:22;;;;;;;5.10;2.67;;;18.80;63.20;;;;;;2086278;28;20087;-48
2023/12/08 04:13:23;;;;;;;4.03;2.60;;;18.80;63.20;;;;;;2087172;28;20054;-48
2023/12/08 04:14:23;;;;;;;3.90;2.40;;;18.80;63.20;;;;;;2087727;28;20032;-49
2023/12/08 04:15:24;;;;;;;3.83;2.60;;;18.90;63.30;;;;;;2087464;28;20013;-49
2023/12/08 04:16:25;;;;;;;3.35;2.60;;;18.80;63.20;;;;;;2087402;28;20397;-49
2023/12/08 04:17:25;;;;;;;4.20;2.83;;;18.80;63.20;;;;;;2084489;28;20110;-49
2023/12/08 04:18:26;;;;;;;3.53;2.47;;;18.80;63.10;;;;;;2086816;28;20101;-49
2023/12/08 04:19:26;;;;;;;3.80;2.70;;;18.80;63.10;;;;;;2088011;28;20025;-48
2023/12/08 04:20:27;;;;;;;3.13;2.67;;;18.80;63.10;;;;;;2084761;28;20211;-50
2023/12/08 04:21:27;;;;;;;3.83;2.88;;;18.80;63.10;;;;;;2087060;28;20460;-50
2023/12/08 04:22:28;;;;;;;3.50;2.50;;;18.90;63.20;;;;;;2088052;28;20499;-48
2023/12/08 04:23:29;;;;;;;3.90;2.63;;;18.80;63.20;;;;;;2087229;28;20025;-48
2023/12/08 04:24:31;;;;;;;3.83;2.15;;;18.80;63.20;;;;;;2087921;28;20009;-48
2023/12/08 04:25:31;;;;;;;3.95;2.50;;;18.70;63.20;;;;;;2085460;28;20704;-48
2023/12/08 04:26:32;;;;;;;5.07;3.13;;;18.80;63.20;;;;;;2087386;28;20503;-49
2023/12/08 04:27:32;;;;;;;3.70;2.75;;;18.80;63.20;;;;;;2087249;28;20118;-48
2023/12/08 04:28:33;;;;;;;4.00;2.38;;;18.90;63.30;;;;;;2087910;28;20031;-50
2023/12/08 04:29:33;;;;;;;4.55;2.53;;;18.80;63.20;;;;;;2086941;28;20116;-48
2023/12/08 04:30:34;;;;;;;3.45;2.60;;;18.70;63.10;;;;;;2087688;28;20108;-49
2023/12/08 04:31:34;;;;;;;3.17;2.58;;;18.80;63.20;;;;;;2087322;28;20059;-48
2023/12/08 04:32:35;;;;;;;4.00;2.78;;;18.70;63.20;;;;;;2087278;28;20055;-49
2023/12/08 04:33:35;;;;;;;3.20;2.53;;;18.80;63.20;;;;;;2087143;28;20052;-51
2023/12/08 04:34:36;;;;;;;3.70;2.70;;;18.80;63.10;;;;;;2086133;28;20021;-48
2023/12/08 04:35:36;;;;;;;4.43;2.85;;;18.70;63.10;;;;;;2087134;28;20053;-48
2023/12/08 04:36:37;;;;;;;3.33;2.47;;;18.80;63.10;;;;;;2087636;28;20108;-49
2023/12/08 04:37:38;;;;;;;3.08;2.55;;;18.80;63.10;;;;;;2086794;28;20017;-49
2023/12/08 04:38:38;;;;;;;4.30;2.65;;;18.70;63.00;;;;;;2087405;28;20031;-48
2023/12/08 04:39:39;;;;;;;3.25;2.42;;;18.70;63.00;;;;;;2087350;28;20087;-48
2023/12/08 04:40:39;;;;;;;2.70;2.33;;;18.80;63.00;;;;;;2087293;28;20021;-48
2023/12/08 04:41:40;;;;;;;4.07;2.70;;;18.60;63.00;;;;;;2087125;28;20314;-49
2023/12/08 04:42:40;;;;;;;3.65;2.83;;;18.70;63.00;;;;;;2087011;28;20025;-48
2023/12/08 04:43:41;;;;;;;3.03;2.50;;;18.70;63.00;;;;;;2087282;28;20106;-48
2023/12/08 04:44:42;;;;;;;3.92;2.90;;;18.70;63.00;;;;;;2087543;28;20168;-49
2023/12/08 04:45:42;;;;;;;3.90;2.90;;;18.60;63.00;;;;;;2086734;28;20059;-49
2023/12/08 04:46:43;;;;;;;4.45;2.60;;;18.70;63.10;;;;;;2087799;28;20036;-49
2023/12/08 04:47:43;;;;;;;3.80;2.70;;;18.60;63.00;;;;;;2086897;28;20195;-48
2023/12/08 04:48:44;;;;;;;3.10;2.42;;;18.70;63.00;;;;;;2087043;28;20041;-48
2023/12/08 04:49:45;;;;;;;2.80;2.40;;;18.80;63.10;;;;;;2087609;28;20423;-49
2023/12/08 04:50:46;;;;;;;5.75;3.33;;;18.70;63.00;;;;;;2087306;28;20021;-48
2023/12/08 04:51:46;;;;;;;3.13;2.63;;;18.70;63.00;;;;;;2085411;28;20537;-49
2023/12/08 04:52:47;;;;;;;4.15;2.95;;;18.60;62.90;;;;;;2087635;28;20025;-49
2023/12/08 04:53:47;;;;;;;3.55;2.40;;;18.80;63.00;;;;;;2086802;28;20033;-49
2023/12/08 04:54:48;;;;;;;5.53;2.55;;;18.70;63.00;;;;;;2086735;28;20052;-48
2023/12/08 04:55:48;;;;;;;4.30;2.92;;;18.70;63.00;;;;;;2087372;28;20041;-49
2023/12/08 04:56:49;;;;;;;4.00;2.85;;;18.70;63.10;;;;;;2086649;28;20021;-48
2023/12/08 04:57:49;;;;;;;3.35;2.60;;;18.70;63.70;;;;;;2087653;28;20056;-48
2023/12/08 04:58:50;;;;;;;3.20;2.50;;;18.70;63.10;;;;;;2086503;28;20013;-48
2023/12/08 04:59:50;;;;;;;4.13;2.65;;;18.70;63.00;;;;;;2087189;28;20032;-48
2023/12/08 05:00:51;;;;;;;3.53;2.38;;;18.70;63.00;;;;;;2086803;28;20029;-49
2023/12/08 05:01:52;;;;;;;3.03;2.20;;;18.70;63.00;;;;;;2087263;28;20051;-48
2023/12/08 05:02:53;;;;;;;4.25;2.97;;;18.70;63.00;;;;;;2086841;28;20032;-48
2023/12/08 05:03:53;;;;;;;4.97;2.80;;;18.70;63.00;;;;;;2087432;28;20043;-49
2023/12/08 05:04:54;;;;;;;4.25;3.05;;;18.60;62.90;;;;;;2087246;28;20025;-48
2023/12/08 05:05:54;;;;;;;3.75;2.78;;;18.60;62.90;;;;;;2087230;28;20017;-48
2023/12/08 05:06:55;;;;;;;3.30;2.75;;;18.60;63.50;;;;;;2087141;28;20033;-48
2023/12/08 05:07:56;;;;;;;3.33;2.72;;;18.60;62.90;;;;;;2087442;28;20028;-49
2023/12/08 05:08:56;;;;;;;3.20;2.65;;;18.70;62.90;;;;;;2086747;28;20056;-48
2023/12/08 05:09:57;;;;;;;3.25;2.38;;;18.60;62.90;;;;;;2087322;28;20017;-49
2023/12/08 05:10:57;;;;;;;4.35;3.10;;;18.60;63.00;;;;;;2086771;28;20035;-49
2023/12/08 05:11:58;;;;;;;3.53;2.83;;;18.60;63.00;;;;;;2087129;28;20029;-49
2023/12/08 05:12:59;;;;;;;3.00;2.40;;;18.60;62.90;;;;;;2086932;28;20025;-49
2023/12/08 05:13:59;;;;;;;5.32;2.85;;;18.60;63.00;;;;;;2085692;28;20020;-50
2023/12/08 05:15:00;;;;;;;3.20;2.63;;;18.60;63.60;;;;;;2087087;28;20028;-49
2023/12/08 05:16:01;;;;;;;4.45;2.88;;;18.60;63.00;;;;;;2087536;28;20021;-48
2023/12/08 05:17:01;;;;;;;3.58;2.53;;;18.60;62.90;;;;;;2086717;28;20083;-49